首页
METAR-TAF:

METAR-TAF

机场 :

小萨尔加多国际机场

阿雷格里港, 南里奥格兰德州, 巴西

纬度: 30-00S, 经度: 051-11W, 海拔: 3米

当前天气观测

该预报发布于24分钟前的21:00 UTC
风速8节,风向东转东南
温度 13°C
湿度 94%
气压 1027 hPa
能见度10公里或以上
1500米以下无云,无积雨云

METAR: SBPA 182100Z 11008KT CAVOK 13/12 Q1027

时间: 18:24 (21:24 UTC)

预报

该预报发布于11小时和39分钟前的09:45 UTC
预报有效从18日的 12点(UTC)到 19日的 12点(UTC)
风速3节,风向西
能見度: 4000
多云层高于500英尺
轻雾
成为
从 18日的 12点(UTC)到 18日的 14点(UTC)
能見度: 6000
多云层高于600英尺
成为
从 18日的 14点(UTC)到 18日的 16点(UTC)
能见度10公里或以上
散云层高于1200英尺
成为
在之间 18和点(UTC)
风速4节,风向东转东南
能见度10公里或以上
1500米以下无云,无积雨云

TAF: SBPA 180945Z 1812/1912 28003KT 4000 BR BKN005 TX14/1819Z TN06/190 8Z BECMG 1812/1814 6000 BKN006 BECMG 1814/1816 9999 NSW SCT012 BECMG 18 16/1818 12004KT CAVOK RMK PEB

超过4000个机场的气象观测和天气预报(METAR&TAF报告)。

可查询的气象台以黄色和红色小点在地图上表示。

将鼠标移到小点上方,可查看气象台名称。

然后点击查看天气观测和预报。

如需切换地图:点击带黑十字的绿色按钮放大地图;点击带横线的绿色按钮缩小地图;或者点击绿色箭头查看邻近地区的地图。


METAR-TAF: